sensor_id;sensor_type;location;lat;lon;timestamp;pressure;altitude;pressure_sealevel;temperature;humidity
43115;BME280;28727;50.068;14.452;2023-05-22T00:00:04;99192.78;;;18.00;64.37
43115;BME280;28727;50.068;14.452;2023-05-22T00:02:39;99196.72;;;17.98;64.53
43115;BME280;28727;50.068;14.452;2023-05-22T00:05:14;99199.03;;;17.94;64.59
43115;BME280;28727;50.068;14.452;2023-05-22T00:07:48;99197.00;;;17.90;64.64
43115;BME280;28727;50.068;14.452;2023-05-22T00:10:23;99191.72;;;17.83;64.76
43115;BME280;28727;50.068;14.452;2023-05-22T00:12:54;99192.59;;;17.77;65.11
43115;BME280;28727;50.068;14.452;2023-05-22T00:15:26;99195.47;;;17.76;64.88
43115;BME280;28727;50.068;14.452;2023-05-22T00:17:58;99194.88;;;17.74;64.72
43115;BME280;28727;50.068;14.452;2023-05-22T00:20:29;99190.34;;;17.74;65.25
43115;BME280;28727;50.068;14.452;2023-05-22T00:23:01;99195.94;;;17.73;65.36
43115;BME280;28727;50.068;14.452;2023-05-22T00:25:33;99191.84;;;17.70;65.69
43115;BME280;28727;50.068;14.452;2023-05-22T00:28:05;99198.22;;;17.69;65.69
43115;BME280;28727;50.068;14.452;2023-05-22T00:30:36;99194.94;;;17.67;65.66
43115;BME280;28727;50.068;14.452;2023-05-22T00:33:09;99192.50;;;17.66;65.78
43115;BME280;28727;50.068;14.452;2023-05-22T00:35:41;99194.75;;;17.62;65.95
43115;BME280;28727;50.068;14.452;2023-05-22T00:38:26;99194.38;;;17.58;66.11
43115;BME280;28727;50.068;14.452;2023-05-22T00:40:59;99206.53;;;17.54;66.23
43115;BME280;28727;50.068;14.452;2023-05-22T00:43:31;99200.38;;;17.54;66.06
43115;BME280;28727;50.068;14.452;2023-05-22T00:46:02;99204.28;;;17.51;65.98
43115;BME280;28727;50.068;14.452;2023-05-22T00:48:34;99200.19;;;17.49;66.25
43115;BME280;28727;50.068;14.452;2023-05-22T00:51:06;99197.75;;;17.47;66.13
43115;BME280;28727;50.068;14.452;2023-05-22T00:53:38;99204.09;;;17.46;66.45
43115;BME280;28727;50.068;14.452;2023-05-22T00:56:11;99199.22;;;17.43;66.28
43115;BME280;28727;50.068;14.452;2023-05-22T00:58:43;99198.81;;;17.40;66.55
43115;BME280;28727;50.068;14.452;2023-05-22T01:01:15;99191.47;;;17.35;66.88
43115;BME280;28727;50.068;14.452;2023-05-22T01:03:48;99188.63;;;17.30;66.79
43115;BME280;28727;50.068;14.452;2023-05-22T01:06:21;99189.03;;;17.27;66.93
43115;BME280;28727;50.068;14.452;2023-05-22T01:08:53;99188.44;;;17.25;66.91
43115;BME280;28727;50.068;14.452;2023-05-22T01:11:27;99195.22;;;17.21;67.22
43115;BME280;28727;50.068;14.452;2023-05-22T01:16:40;99197.53;;;17.17;67.32
43115;BME280;28727;50.068;14.452;2023-05-22T01:19:23;99202.03;;;17.17;67.47
43115;BME280;28727;50.068;14.452;2023-05-22T01:24:48;99195.72;;;17.11;67.61
43115;BME280;28727;50.068;14.452;2023-05-22T01:27:47;99203.09;;;17.09;67.68
43115;BME280;28727;50.068;14.452;2023-05-22T01:33:10;99194.31;;;17.02;67.76
43115;BME280;28727;50.068;14.452;2023-05-22T01:35:45;99196.97;;;17.02;67.76
43115;BME280;28727;50.068;14.452;2023-05-22T01:38:18;99209.94;;;16.99;68.14
43115;BME280;28727;50.068;14.452;2023-05-22T01:40:50;99206.66;;;16.97;67.83
43115;BME280;28727;50.068;14.452;2023-05-22T01:43:23;99204.22;;;16.95;68.32
43115;BME280;28727;50.068;14.452;2023-05-22T01:45:55;99205.66;;;16.91;68.53
43115;BME280;28727;50.068;14.452;2023-05-22T01:48:27;99206.94;;;16.89;68.52
43115;BME280;28727;50.068;14.452;2023-05-22T01:51:00;99209.41;;;16.84;68.71
43115;BME280;28727;50.068;14.452;2023-05-22T01:53:46;99208.19;;;16.79;68.77
43115;BME280;28727;50.068;14.452;2023-05-22T01:56:28;99209.66;;;16.75;68.95
43115;BME280;28727;50.068;14.452;2023-05-22T01:59:09;99205.78;;;16.71;69.00
43115;BME280;28727;50.068;14.452;2023-05-22T02:01:45;99203.53;;;16.68;69.29
43115;BME280;28727;50.068;14.452;2023-05-22T02:04:21;99205.81;;;16.65;69.48
43115;BME280;28727;50.068;14.452;2023-05-22T02:06:53;99205.38;;;16.61;69.59
43115;BME280;28727;50.068;14.452;2023-05-22T02:09:28;99204.81;;;16.59;69.51
43115;BME280;28727;50.068;14.452;2023-05-22T02:12:02;99202.31;;;16.58;69.55
43115;BME280;28727;50.068;14.452;2023-05-22T02:14:34;99201.69;;;16.56;69.65
43115;BME280;28727;50.068;14.452;2023-05-22T02:17:07;99196.78;;;16.53;69.90
43115;BME280;28727;50.068;14.452;2023-05-22T02:19:39;99199.84;;;16.50;69.65
43115;BME280;28727;50.068;14.452;2023-05-22T02:22:10;99195.78;;;16.47;69.56
43115;BME280;28727;50.068;14.452;2023-05-22T02:24:46;99190.03;;;16.44;69.87
43115;BME280;28727;50.068;14.452;2023-05-22T02:27:19;99183.50;;;16.39;69.97
43115;BME280;28727;50.068;14.452;2023-05-22T02:29:51;99182.09;;;16.37;70.07
43115;BME280;28727;50.068;14.452;2023-05-22T02:32:23;99182.50;;;16.34;70.37
43115;BME280;28727;50.068;14.452;2023-05-22T02:34:54;99179.44;;;16.30;70.47
43115;BME280;28727;50.068;14.452;2023-05-22T02:37:28;99179.63;;;16.29;70.70
43115;BME280;28727;50.068;14.452;2023-05-22T02:40:00;99177.16;;;16.27;70.63
43115;BME280;28727;50.068;14.452;2023-05-22T02:42:33;99185.38;;;16.26;70.75
43115;BME280;28727;50.068;14.452;2023-05-22T02:45:05;99180.28;;;16.24;70.86
43115;BME280;28727;50.068;14.452;2023-05-22T02:47:37;99178.63;;;16.23;70.85
43115;BME280;28727;50.068;14.452;2023-05-22T02:50:09;99177.41;;;16.19;70.90
43115;BME280;28727;50.068;14.452;2023-05-22T02:52:41;99186.63;;;16.17;71.16
43115;BME280;28727;50.068;14.452;2023-05-22T02:55:13;99181.31;;;16.17;70.96
43115;BME280;28727;50.068;14.452;2023-05-22T02:57:48;99180.69;;;16.15;70.98
43115;BME280;28727;50.068;14.452;2023-05-22T03:00:20;99184.81;;;16.11;71.22
43115;BME280;28727;50.068;14.452;2023-05-22T03:02:53;99189.75;;;16.07;71.55
43115;BME280;28727;50.068;14.452;2023-05-22T03:05:24;99180.94;;;16.07;71.41
43115;BME280;28727;50.068;14.452;2023-05-22T03:07:56;99182.16;;;16.04;71.44
43115;BME280;28727;50.068;14.452;2023-05-22T03:10:28;99185.84;;;16.03;71.80
43115;BME280;28727;50.068;14.452;2023-05-22T03:13:00;99181.56;;;16.02;71.64
43115;BME280;28727;50.068;14.452;2023-05-22T03:15:35;99182.56;;;16.01;71.61
43115;BME280;28727;50.068;14.452;2023-05-22T03:18:14;99186.47;;;15.98;71.73
43115;BME280;28727;50.068;14.452;2023-05-22T03:20:47;99189.56;;;15.95;72.00
43115;BME280;28727;50.068;14.452;2023-05-22T03:23:18;99177.66;;;15.91;72.24
43115;BME280;28727;50.068;14.452;2023-05-22T03:25:55;99176.00;;;15.90;71.79
43115;BME280;28727;50.068;14.452;2023-05-22T03:28:31;99178.69;;;15.90;72.11
43115;BME280;28727;50.068;14.452;2023-05-22T03:31:02;99184.22;;;15.89;72.14
43115;BME280;28727;50.068;14.452;2023-05-22T03:33:42;99179.94;;;15.88;72.05
43115;BME280;28727;50.068;14.452;2023-05-22T03:36:14;99186.28;;;15.87;72.22
43115;BME280;28727;50.068;14.452;2023-05-22T03:38:46;99180.75;;;15.88;71.96
43115;BME280;28727;50.068;14.452;2023-05-22T03:41:18;99181.97;;;15.92;72.05
43115;BME280;28727;50.068;14.452;2023-05-22T03:43:50;99185.25;;;15.94;71.68
43115;BME280;28727;50.068;14.452;2023-05-22T03:46:22;99181.97;;;15.99;71.62
43115;BME280;28727;50.068;14.452;2023-05-22T03:48:54;99183.16;;;16.03;71.63
43115;BME280;28727;50.068;14.452;2023-05-22T03:51:28;99179.28;;;16.06;71.48
43115;BME280;28727;50.068;14.452;2023-05-22T03:54:00;99180.69;;;16.08;71.43
43115;BME280;28727;50.068;14.452;2023-05-22T03:56:31;99176.81;;;16.11;71.30
43115;BME280;28727;50.068;14.452;2023-05-22T03:59:03;99179.88;;;16.14;71.12
43115;BME280;28727;50.068;14.452;2023-05-22T04:01:35;99174.53;;;16.14;70.86
43115;BME280;28727;50.068;14.452;2023-05-22T04:04:09;99169.81;;;16.16;70.86
43115;BME280;28727;50.068;14.452;2023-05-22T04:06:42;99168.81;;;16.17;70.63
43115;BME280;28727;50.068;14.452;2023-05-22T04:09:16;99172.09;;;16.19;70.67
43115;BME280;28727;50.068;14.452;2023-05-22T04:11:48;99171.25;;;16.25;70.72
43115;BME280;28727;50.068;14.452;2023-05-22T04:14:20;99166.94;;;16.31;70.28
43115;BME280;28727;50.068;14.452;2023-05-22T04:16:51;99166.88;;;16.37;70.09
43115;BME280;28727;50.068;14.452;2023-05-22T04:19:23;99164.22;;;16.37;70.01
43115;BME280;28727;50.068;14.452;2023-05-22T04:21:56;99165.44;;;16.42;69.73
43115;BME280;28727;50.068;14.452;2023-05-22T04:24:28;99155.81;;;16.41;69.53
43115;BME280;28727;50.068;14.452;2023-05-22T04:27:03;99159.69;;;16.38;69.57
43115;BME280;28727;50.068;14.452;2023-05-22T04:29:34;99160.75;;;16.37;69.83
43115;BME280;28727;50.068;14.452;2023-05-22T04:32:11;99161.97;;;16.34;69.91
43115;BME280;28727;50.068;14.452;2023-05-22T04:34:48;99162.78;;;16.42;69.87
43115;BME280;28727;50.068;14.452;2023-05-22T04:37:21;99159.88;;;16.50;69.21
43115;BME280;28727;50.068;14.452;2023-05-22T04:39:55;99164.78;;;16.53;69.09
43115;BME280;28727;50.068;14.452;2023-05-22T04:42:28;99162.72;;;16.61;68.95
43115;BME280;28727;50.068;14.452;2023-05-22T04:45:01;99164.50;;;16.74;68.93
43115;BME280;28727;50.068;14.452;2023-05-22T04:47:32;99163.63;;;16.87;68.22
43115;BME280;28727;50.068;14.452;2023-05-22T04:50:09;99160.72;;;16.95;67.88
43115;BME280;28727;50.068;14.452;2023-05-22T04:52:41;99156.91;;;17.09;67.49
43115;BME280;28727;50.068;14.452;2023-05-22T04:55:13;99162.34;;;17.27;67.23
43115;BME280;28727;50.068;14.452;2023-05-22T04:57:45;99161.22;;;17.41;66.28
43115;BME280;28727;50.068;14.452;2023-05-22T05:00:18;99161.59;;;17.45;66.15
43115;BME280;28727;50.068;14.452;2023-05-22T05:02:50;99163.63;;;17.49;65.67
43115;BME280;28727;50.068;14.452;2023-05-22T05:05:22;99167.50;;;17.53;65.41
43115;BME280;28727;50.068;14.452;2023-05-22T05:07:54;99160.84;;;17.63;65.36
43115;BME280;28727;50.068;14.452;2023-05-22T05:10:27;99154.75;;;17.80;64.82
43115;BME280;28727;50.068;14.452;2023-05-22T05:12:58;99152.25;;;18.04;64.04
43115;BME280;28727;50.068;14.452;2023-05-22T05:15:31;99156.72;;;18.28;63.28
43115;BME280;28727;50.068;14.452;2023-05-22T05:18:05;99160.66;;;18.44;62.77
43115;BME280;28727;50.068;14.452;2023-05-22T05:20:37;99153.44;;;18.44;61.94
43115;BME280;28727;50.068;14.452;2023-05-22T05:23:09;99151.50;;;18.51;61.79
43115;BME280;28727;50.068;14.452;2023-05-22T05:25:41;99147.19;;;18.68;61.35
43115;BME280;28727;50.068;14.452;2023-05-22T05:28:13;99144.50;;;18.98;60.28
43115;BME280;28727;50.068;14.452;2023-05-22T05:30:46;99145.88;;;19.19;59.59
43115;BME280;28727;50.068;14.452;2023-05-22T05:33:35;99145.31;;;19.29;59.19
43115;BME280;28727;50.068;14.452;2023-05-22T05:36:17;99146.63;;;19.38;58.99
43115;BME280;28727;50.068;14.452;2023-05-22T05:38:50;99139.19;;;19.51;58.80
43115;BME280;28727;50.068;14.452;2023-05-22T05:41:24;99146.31;;;19.81;58.36
43115;BME280;28727;50.068;14.452;2023-05-22T05:44:04;99147.47;;;20.08;57.80
43115;BME280;28727;50.068;14.452;2023-05-22T05:46:36;99143.59;;;20.39;56.36
43115;BME280;28727;50.068;14.452;2023-05-22T05:49:08;99144.19;;;20.41;55.48
43115;BME280;28727;50.068;14.452;2023-05-22T05:51:41;99147.63;;;20.53;56.29
43115;BME280;28727;50.068;14.452;2023-05-22T05:54:14;99137.28;;;20.85;55.56
43115;BME280;28727;50.068;14.452;2023-05-22T05:56:47;99135.94;;;21.16;56.76
43115;BME280;28727;50.068;14.452;2023-05-22T05:59:19;99132.56;;;21.54;54.78
43115;BME280;28727;50.068;14.452;2023-05-22T06:02:21;99134.50;;;21.75;51.99
43115;BME280;28727;50.068;14.452;2023-05-22T06:04:56;99132.03;;;21.90;52.96
43115;BME280;28727;50.068;14.452;2023-05-22T06:07:30;99135.94;;;21.99;51.92
43115;BME280;28727;50.068;14.452;2023-05-22T06:10:04;99128.22;;;22.25;51.02
43115;BME280;28727;50.068;14.452;2023-05-22T06:12:59;99129.47;;;22.61;50.92
43115;BME280;28727;50.068;14.452;2023-05-22T06:15:31;99125.00;;;22.71;49.02
43115;BME280;28727;50.068;14.452;2023-05-22T06:18:07;99127.69;;;22.71;49.33
43115;BME280;28727;50.068;14.452;2023-05-22T06:20:40;99125.13;;;22.81;49.09
43115;BME280;28727;50.068;14.452;2023-05-22T06:23:13;99120.50;;;22.77;48.76
43115;BME280;28727;50.068;14.452;2023-05-22T06:25:46;99122.47;;;23.08;48.34
43115;BME280;28727;50.068;14.452;2023-05-22T06:28:20;99121.19;;;23.21;47.58
43115;BME280;28727;50.068;14.452;2023-05-22T06:30:52;99114.09;;;23.10;46.86
43115;BME280;28727;50.068;14.452;2023-05-22T06:33:26;99119.44;;;23.32;47.16
43115;BME280;28727;50.068;14.452;2023-05-22T06:35:58;99119.59;;;23.52;47.37
43115;BME280;28727;50.068;14.452;2023-05-22T06:38:30;99119.16;;;23.65;46.73
43115;BME280;28727;50.068;14.452;2023-05-22T06:41:03;99118.72;;;23.78;44.91
43115;BME280;28727;50.068;14.452;2023-05-22T06:43:35;99119.88;;;23.92;45.37
43115;BME280;28727;50.068;14.452;2023-05-22T06:46:15;99115.38;;;24.03;44.93
43115;BME280;28727;50.068;14.452;2023-05-22T06:48:54;99120.69;;;23.93;45.43
43115;BME280;28727;50.068;14.452;2023-05-22T06:51:28;99123.59;;;23.81;44.44
43115;BME280;28727;50.068;14.452;2023-05-22T06:54:07;99116.94;;;23.99;44.82
43115;BME280;28727;50.068;14.452;2023-05-22T06:56:40;99111.50;;;24.41;43.84
43115;BME280;28727;50.068;14.452;2023-05-22T06:59:18;99118.09;;;24.80;43.33
43115;BME280;28727;50.068;14.452;2023-05-22T07:02:08;99114.13;;;25.13;42.11
43115;BME280;28727;50.068;14.452;2023-05-22T07:05:01;99108.19;;;25.26;42.17
43115;BME280;28727;50.068;14.452;2023-05-22T07:07:37;99112.53;;;25.33;41.65
43115;BME280;28727;50.068;14.452;2023-05-22T07:10:10;99110.88;;;25.21;41.76
43115;BME280;28727;50.068;14.452;2023-05-22T07:12:43;99114.41;;;25.22;42.90
43115;BME280;28727;50.068;14.452;2023-05-22T07:15:14;99116.84;;;25.39;42.96
43115;BME280;28727;50.068;14.452;2023-05-22T07:17:52;99108.19;;;25.57;42.25
43115;BME280;28727;50.068;14.452;2023-05-22T07:20:24;99110.63;;;25.68;41.34
43115;BME280;28727;50.068;14.452;2023-05-22T07:23:08;99109.75;;;25.93;41.11
43115;BME280;28727;50.068;14.452;2023-05-22T07:25:41;99106.00;;;25.84;41.37
43115;BME280;28727;50.068;14.452;2023-05-22T07:28:15;99098.91;;;25.98;41.48
43115;BME280;28727;50.068;14.452;2023-05-22T07:30:55;99092.59;;;26.38;40.48
43115;BME280;28727;50.068;14.452;2023-05-22T07:33:27;99096.59;;;26.46;40.89
43115;BME280;28727;50.068;14.452;2023-05-22T07:36:01;99094.97;;;26.50;40.17
43115;BME280;28727;50.068;14.452;2023-05-22T07:38:33;99099.25;;;26.61;39.88
43115;BME280;28727;50.068;14.452;2023-05-22T07:41:06;99091.19;;;26.46;39.95
43115;BME280;28727;50.068;14.452;2023-05-22T07:43:39;99090.38;;;26.45;40.62
43115;BME280;28727;50.068;14.452;2023-05-22T07:46:13;99097.03;;;26.68;40.13
43115;BME280;28727;50.068;14.452;2023-05-22T07:48:58;99083.16;;;26.75;39.74
43115;BME280;28727;50.068;14.452;2023-05-22T07:51:29;99091.00;;;26.76;40.20
43115;BME280;28727;50.068;14.452;2023-05-22T07:54:01;99092.03;;;26.91;40.56
43115;BME280;28727;50.068;14.452;2023-05-22T07:56:33;99088.22;;;26.86;39.48
43115;BME280;28727;50.068;14.452;2023-05-22T07:59:08;99090.84;;;26.58;40.29
43115;BME280;28727;50.068;14.452;2023-05-22T08:01:43;99086.81;;;26.55;39.26
43115;BME280;28727;50.068;14.452;2023-05-22T08:04:14;99077.91;;;26.49;40.74
43115;BME280;28727;50.068;14.452;2023-05-22T08:06:47;99080.38;;;26.41;40.35
43115;BME280;28727;50.068;14.452;2023-05-22T08:09:18;99085.22;;;26.49;40.40
43115;BME280;28727;50.068;14.452;2023-05-22T08:11:52;99086.41;;;26.77;40.18
43115;BME280;28727;50.068;14.452;2023-05-22T08:14:23;99079.00;;;26.98;40.02
43115;BME280;28727;50.068;14.452;2023-05-22T08:16:55;99077.59;;;27.34;39.30
43115;BME280;28727;50.068;14.452;2023-05-22T08:19:29;99066.53;;;27.59;39.29
43115;BME280;28727;50.068;14.452;2023-05-22T08:22:01;99075.75;;;27.58;37.91
43115;BME280;28727;50.068;14.452;2023-05-22T08:24:32;99084.97;;;27.62;37.69
43115;BME280;28727;50.068;14.452;2023-05-22T08:27:04;99072.00;;;27.54;37.53
43115;BME280;28727;50.068;14.452;2023-05-22T08:29:36;99075.84;;;27.77;37.91
43115;BME280;28727;50.068;14.452;2023-05-22T08:32:08;99070.34;;;27.82;37.70
43115;BME280;28727;50.068;14.452;2023-05-22T08:34:39;99073.88;;;27.83;37.70
43115;BME280;28727;50.068;14.452;2023-05-22T08:37:12;99068.13;;;27.89;38.53
43115;BME280;28727;50.068;14.452;2023-05-22T08:39:48;99071.69;;;28.08;38.21
43115;BME280;28727;50.068;14.452;2023-05-22T08:42:20;99071.31;;;27.96;37.37
43115;BME280;28727;50.068;14.452;2023-05-22T08:44:51;99065.47;;;27.84;37.62
43115;BME280;28727;50.068;14.452;2023-05-22T08:47:26;99070.19;;;27.74;37.29
43115;BME280;28727;50.068;14.452;2023-05-22T08:49:58;99060.06;;;27.55;37.74
43115;BME280;28727;50.068;14.452;2023-05-22T08:52:32;99060.81;;;27.61;37.45
43115;BME280;28727;50.068;14.452;2023-05-22T08:55:07;99061.88;;;27.89;36.95
43115;BME280;28727;50.068;14.452;2023-05-22T08:57:39;99055.75;;;28.02;37.35
43115;BME280;28727;50.068;14.452;2023-05-22T09:00:12;99059.16;;;28.13;36.29
43115;BME280;28727;50.068;14.452;2023-05-22T09:02:44;99062.75;;;28.08;36.85
43115;BME280;28727;50.068;14.452;2023-05-22T09:05:17;99052.16;;;27.83;37.29
43115;BME280;28727;50.068;14.452;2023-05-22T09:07:48;99063.66;;;27.98;37.57
43115;BME280;28727;50.068;14.452;2023-05-22T09:10:20;99050.88;;;28.23;37.13
43115;BME280;28727;50.068;14.452;2023-05-22T09:13:01;99050.41;;;28.21;37.23
43115;BME280;28727;50.068;14.452;2023-05-22T09:15:35;99052.38;;;28.10;37.50
43115;BME280;28727;50.068;14.452;2023-05-22T09:18:06;99044.47;;;28.37;37.34
43115;BME280;28727;50.068;14.452;2023-05-22T09:20:38;99041.06;;;28.45;37.25
43115;BME280;28727;50.068;14.452;2023-05-22T09:23:11;99040.69;;;28.15;36.46
43115;BME280;28727;50.068;14.452;2023-05-22T09:25:44;99046.56;;;27.98;36.80
43115;BME280;28727;50.068;14.452;2023-05-22T09:28:16;99045.56;;;27.89;37.61
43115;BME280;28727;50.068;14.452;2023-05-22T09:30:51;99039.09;;;28.08;37.03
43115;BME280;28727;50.068;14.452;2023-05-22T09:33:23;99047.25;;;28.08;36.36
43115;BME280;28727;50.068;14.452;2023-05-22T09:35:55;99045.50;;;27.94;36.27
43115;BME280;28727;50.068;14.452;2023-05-22T09:38:28;99039.00;;;27.95;36.32
43115;BME280;28727;50.068;14.452;2023-05-22T09:41:00;99046.63;;;28.17;36.07
43115;BME280;28727;50.068;14.452;2023-05-22T09:43:32;99048.63;;;28.06;37.05
43115;BME280;28727;50.068;14.452;2023-05-22T09:46:03;99048.69;;;28.01;35.58
43115;BME280;28727;50.068;14.452;2023-05-22T09:48:35;99037.84;;;28.01;35.94
43115;BME280;28727;50.068;14.452;2023-05-22T09:51:07;99037.38;;;28.18;35.64
43115;BME280;28727;50.068;14.452;2023-05-22T09:53:40;99036.00;;;28.20;35.18
43115;BME280;28727;50.068;14.452;2023-05-22T09:56:13;99032.56;;;28.33;35.40
43115;BME280;28727;50.068;14.452;2023-05-22T09:58:51;99032.72;;;28.42;35.27
43115;BME280;28727;50.068;14.452;2023-05-22T10:01:23;99041.28;;;28.30;35.57
43115;BME280;28727;50.068;14.452;2023-05-22T10:03:55;99033.06;;;28.35;34.90
43115;BME280;28727;50.068;14.452;2023-05-22T10:06:27;99034.25;;;28.67;35.32
43115;BME280;28727;50.068;14.452;2023-05-22T10:09:02;99030.00;;;28.61;34.27
43115;BME280;28727;50.068;14.452;2023-05-22T10:11:35;99021.06;;;28.79;33.90
43115;BME280;28727;50.068;14.452;2023-05-22T10:14:07;99021.94;;;28.74;33.81
43115;BME280;28727;50.068;14.452;2023-05-22T10:16:39;99022.28;;;28.68;34.14
43115;BME280;28727;50.068;14.452;2023-05-22T10:19:12;99014.81;;;28.78;33.05
43115;BME280;28727;50.068;14.452;2023-05-22T10:21:44;99011.84;;;28.56;33.89
43115;BME280;28727;50.068;14.452;2023-05-22T10:24:18;99008.78;;;28.63;34.17
43115;BME280;28727;50.068;14.452;2023-05-22T10:26:57;99020.66;;;28.67;34.20
43115;BME280;28727;50.068;14.452;2023-05-22T10:29:35;99001.63;;;28.67;33.88
43115;BME280;28727;50.068;14.452;2023-05-22T10:32:12;98995.91;;;28.68;33.66
43115;BME280;28727;50.068;14.452;2023-05-22T10:35:40;98994.34;;;28.81;33.11
43115;BME280;28727;50.068;14.452;2023-05-22T10:37:55;98990.91;;;28.75;34.00
43115;BME280;28727;50.068;14.452;2023-05-22T10:40:32;98984.84;;;28.97;33.82
43115;BME280;28727;50.068;14.452;2023-05-22T10:43:06;98989.72;;;29.14;33.07
43115;BME280;28727;50.068;14.452;2023-05-22T10:45:38;98980.94;;;29.17;32.96
43115;BME280;28727;50.068;14.452;2023-05-22T10:48:14;98988.41;;;29.11;32.32
43115;BME280;28727;50.068;14.452;2023-05-22T10:50:52;98975.47;;;28.89;32.05
43115;BME280;28727;50.068;14.452;2023-05-22T10:53:24;98968.81;;;28.96;33.10
43115;BME280;28727;50.068;14.452;2023-05-22T10:55:56;98970.28;;;29.20;32.38
43115;BME280;28727;50.068;14.452;2023-05-22T10:58:29;98974.84;;;29.25;31.70
43115;BME280;28727;50.068;14.452;2023-05-22T11:01:07;98963.84;;;29.30;32.09
43115;BME280;28727;50.068;14.452;2023-05-22T11:03:58;98952.03;;;29.07;31.66
43115;BME280;28727;50.068;14.452;2023-05-22T11:06:42;98956.88;;;29.24;31.96
43115;BME280;28727;50.068;14.452;2023-05-22T11:14:51;98948.31;;;29.17;31.79
43115;BME280;28727;50.068;14.452;2023-05-22T11:17:28;98951.25;;;29.20;31.93
43115;BME280;28727;50.068;14.452;2023-05-22T11:20:03;98947.91;;;29.10;32.13
43115;BME280;28727;50.068;14.452;2023-05-22T11:22:38;98946.38;;;29.04;32.30
43115;BME280;28727;50.068;14.452;2023-05-22T11:25:17;98944.88;;;28.98;32.19
43115;BME280;28727;50.068;14.452;2023-05-22T11:27:49;98941.19;;;28.88;32.69
43115;BME280;28727;50.068;14.452;2023-05-22T11:30:24;98940.00;;;28.95;32.66
43115;BME280;28727;50.068;14.452;2023-05-22T11:33:00;98942.31;;;28.87;32.94
43115;BME280;28727;50.068;14.452;2023-05-22T11:35:32;98942.19;;;28.79;32.82
43115;BME280;28727;50.068;14.452;2023-05-22T11:38:04;98940.19;;;28.84;33.30
43115;BME280;28727;50.068;14.452;2023-05-22T11:40:37;98932.47;;;28.92;33.11
43115;BME280;28727;50.068;14.452;2023-05-22T11:43:09;98934.78;;;28.98;33.52
43115;BME280;28727;50.068;14.452;2023-05-22T11:45:41;98933.47;;;28.96;32.78
43115;BME280;28727;50.068;14.452;2023-05-22T11:48:13;98935.03;;;28.83;32.68
43115;BME280;28727;50.068;14.452;2023-05-22T11:50:46;98935.03;;;28.83;32.59
43115;BME280;28727;50.068;14.452;2023-05-22T11:53:18;98938.16;;;28.76;33.16
43115;BME280;28727;50.068;14.452;2023-05-22T11:55:49;98927.19;;;28.81;33.30
43115;BME280;28727;50.068;14.452;2023-05-22T11:58:26;98945.09;;;28.82;32.95
43115;BME280;28727;50.068;14.452;2023-05-22T12:01:00;98933.94;;;28.65;33.05
43115;BME280;28727;50.068;14.452;2023-05-22T12:03:32;98934.56;;;28.62;33.21
43115;BME280;28727;50.068;14.452;2023-05-22T12:06:04;98936.38;;;28.67;33.19
43115;BME280;28727;50.068;14.452;2023-05-22T12:08:37;98934.41;;;28.54;33.63
43115;BME280;28727;50.068;14.452;2023-05-22T12:11:10;98932.84;;;28.15;33.39
43115;BME280;28727;50.068;14.452;2023-05-22T12:13:42;98934.41;;;27.97;34.16
43115;BME280;28727;50.068;14.452;2023-05-22T12:16:17;98931.03;;;28.05;34.38
43115;BME280;28727;50.068;14.452;2023-05-22T12:18:52;98940.13;;;27.96;34.36
43115;BME280;28727;50.068;14.452;2023-05-22T12:21:25;98930.59;;;27.80;33.95
43115;BME280;28727;50.068;14.452;2023-05-22T12:23:57;98931.22;;;27.72;34.19
43115;BME280;28727;50.068;14.452;2023-05-22T12:26:29;98918.25;;;27.87;34.78
43115;BME280;28727;50.068;14.452;2023-05-22T12:29:00;98925.50;;;28.10;34.16
43115;BME280;28727;50.068;14.452;2023-05-22T12:31:35;98913.06;;;28.09;33.07
43115;BME280;28727;50.068;14.452;2023-05-22T12:34:09;98914.44;;;28.07;33.30
43115;BME280;28727;50.068;14.452;2023-05-22T12:36:42;98906.50;;;28.16;33.32
43115;BME280;28727;50.068;14.452;2023-05-22T12:39:17;98913.78;;;27.96;33.33
43115;BME280;28727;50.068;14.452;2023-05-22T12:41:49;98909.75;;;28.13;33.27
43115;BME280;28727;50.068;14.452;2023-05-22T12:44:20;98903.25;;;28.14;33.20
43115;BME280;28727;50.068;14.452;2023-05-22T12:46:52;98896.28;;;28.26;33.33
43115;BME280;28727;50.068;14.452;2023-05-22T12:49:24;98900.25;;;28.47;33.42
43115;BME280;28727;50.068;14.452;2023-05-22T12:51:55;98911.47;;;28.60;32.88
43115;BME280;28727;50.068;14.452;2023-05-22T12:54:27;98897.56;;;28.29;32.13
43115;BME280;28727;50.068;14.452;2023-05-22T12:56:59;98900.22;;;27.96;32.97
43115;BME280;28727;50.068;14.452;2023-05-22T12:59:30;98892.78;;;28.02;33.17
43115;BME280;28727;50.068;14.452;2023-05-22T13:02:04;98887.59;;;28.24;33.02
43115;BME280;28727;50.068;14.452;2023-05-22T13:04:36;98894.41;;;28.40;32.90
43115;BME280;28727;50.068;14.452;2023-05-22T13:07:07;98898.22;;;28.39;32.55
43115;BME280;28727;50.068;14.452;2023-05-22T13:09:39;98896.91;;;28.18;33.02
43115;BME280;28727;50.068;14.452;2023-05-22T13:12:11;98897.63;;;28.05;33.05
43115;BME280;28727;50.068;14.452;2023-05-22T13:14:43;98886.34;;;27.98;33.65
43115;BME280;28727;50.068;14.452;2023-05-22T13:17:14;98877.44;;;28.11;33.60
43115;BME280;28727;50.068;14.452;2023-05-22T13:19:46;98879.22;;;28.02;33.94
43115;BME280;28727;50.068;14.452;2023-05-22T13:22:18;98879.28;;;27.97;33.59
43115;BME280;28727;50.068;14.452;2023-05-22T13:24:49;98878.94;;;28.03;33.91
43115;BME280;28727;50.068;14.452;2023-05-22T13:27:21;98869.28;;;28.11;34.05
43115;BME280;28727;50.068;14.452;2023-05-22T13:29:53;98863.56;;;28.13;33.59
43115;BME280;28727;50.068;14.452;2023-05-22T13:32:25;98873.91;;;28.10;33.55
43115;BME280;28727;50.068;14.452;2023-05-22T13:34:57;98869.72;;;27.99;33.27
43115;BME280;28727;50.068;14.452;2023-05-22T13:37:28;98872.00;;;27.92;33.23